Time;durP1;ratioP1;P1;durP2;ratioP2;P2;SDS_P1;SDS_P2;PMS_P1;PMS_P2;Temp;Humidity;BMP_temperature;BMP_pressure;BME280_temperature;BME280_humidity;BME280_pressure;Samples;Min_cycle;Max_cycle;Signal;HPM_P1;HPM_P2
2021/09/20 00:02:20;;;;;;;17.25;8.05;;;;;;;;;;6225600;28;20498;-80
2021/09/20 00:05:22;;;;;;;16.15;8.40;;;;;;;;;;6245337;28;20056;-82
2021/09/20 00:08:24;;;;;;;15.82;8.15;;;;;;;;;;6219237;28;20042;-79
2021/09/20 00:11:25;;;;;;;15.05;7.90;;;;;;;;;;6246882;28;20562;-81
2021/09/20 00:14:27;;;;;;;16.00;8.70;;;;;;;;;;6248120;28;20131;-78
2021/09/20 00:17:29;;;;;;;15.90;8.30;;;;;;;;;;6237754;28;20046;-80
2021/09/20 00:20:30;;;;;;;16.92;8.65;;;;;;;;;;6240609;28;20041;-80
2021/09/20 00:23:32;;;;;;;17.52;8.10;;;;;;;;;;6240920;28;20041;-81
2021/09/20 00:26:34;;;;;;;17.35;8.48;;;;;;;;;;6240758;28;20110;-79
2021/09/20 00:29:36;;;;;;;17.02;8.85;;;;;;;;;;6242341;28;20668;-81
2021/09/20 00:32:38;;;;;;;15.55;8.52;;;;;;;;;;6238483;28;20061;-81
2021/09/20 00:35:39;;;;;;;15.55;8.88;;;;;;;;;;6241205;28;20063;-81
2021/09/20 00:38:41;;;;;;;16.38;8.52;;;;;;;;;;6242441;28;20055;-79
2021/09/20 00:41:43;;;;;;;16.02;9.10;;;;;;;;;;6240509;28;20065;-79
2021/09/20 00:44:44;;;;;;;14.48;8.07;;;;;;;;;;6239597;28;20128;-81
2021/09/20 00:47:46;;;;;;;15.85;7.72;;;;;;;;;;6235536;28;20045;-80
2021/09/20 00:50:48;;;;;;;15.02;8.27;;;;;;;;;;6241472;28;20045;-80
2021/09/20 00:53:49;;;;;;;15.80;8.15;;;;;;;;;;6223917;28;20556;-79
2021/09/20 00:56:51;;;;;;;15.35;7.97;;;;;;;;;;6239489;28;20128;-81
2021/09/20 00:59:53;;;;;;;15.20;8.45;;;;;;;;;;6213072;28;20042;-79
2021/09/20 01:03:41;;;;;;;15.45;8.35;;;;;;;;;;6232194;28;20064;-78
2021/09/20 01:06:43;;;;;;;16.90;8.52;;;;;;;;;;6249820;28;20183;-81
2021/09/20 01:09:45;;;;;;;19.00;8.70;;;;;;;;;;6240318;28;20037;-80
2021/09/20 01:12:47;;;;;;;15.02;8.38;;;;;;;;;;6240746;28;20054;-81
2021/09/20 01:15:48;;;;;;;13.77;8.05;;;;;;;;;;6240385;28;20417;-79
2021/09/20 01:18:50;;;;;;;16.80;8.60;;;;;;;;;;6241341;28;20386;-81
2021/09/20 01:21:52;;;;;;;14.98;8.52;;;;;;;;;;6242276;28;20764;-81
2021/09/20 01:24:55;;;;;;;15.70;8.48;;;;;;;;;;6236006;28;20503;-80
2021/09/20 01:27:57;;;;;;;18.27;8.90;;;;;;;;;;6241118;28;20186;-81
2021/09/20 01:30:58;;;;;;;14.15;8.38;;;;;;;;;;6240066;28;20041;-80
2021/09/20 01:34:00;;;;;;;13.95;8.00;;;;;;;;;;6238913;28;20049;-78
2021/09/20 01:37:03;;;;;;;13.45;7.88;;;;;;;;;;6239294;28;20089;-80
2021/09/20 01:40:05;;;;;;;15.88;8.85;;;;;;;;;;6233088;28;20068;-78
2021/09/20 01:43:07;;;;;;;15.48;8.35;;;;;;;;;;6225909;28;20465;-79
2021/09/20 01:46:08;;;;;;;14.25;8.32;;;;;;;;;;6219919;28;20038;-80
2021/09/20 01:49:11;;;;;;;15.80;8.18;;;;;;;;;;6230719;28;20611;-80
2021/09/20 01:52:12;;;;;;;15.52;8.05;;;;;;;;;;6236293;28;20041;-81
2021/09/20 01:55:14;;;;;;;15.38;8.85;;;;;;;;;;6239761;28;20124;-82
2021/09/20 01:58:16;;;;;;;17.48;8.20;;;;;;;;;;6238325;28;20095;-81
2021/09/20 02:01:17;;;;;;;14.80;8.48;;;;;;;;;;6253292;28;20033;-79
2021/09/20 02:04:19;;;;;;;17.13;8.57;;;;;;;;;;6239384;28;20041;-80
2021/09/20 02:07:20;;;;;;;15.73;8.77;;;;;;;;;;6239855;28;20473;-82
2021/09/20 02:10:22;;;;;;;16.27;8.60;;;;;;;;;;6236851;28;20048;-80
2021/09/20 02:13:24;;;;;;;15.57;8.23;;;;;;;;;;6237736;28;20049;-80
2021/09/20 02:16:25;;;;;;;13.63;7.95;;;;;;;;;;6238790;28;20084;-82
2021/09/20 02:19:27;;;;;;;14.10;8.15;;;;;;;;;;6236326;28;20518;-81
2021/09/20 02:22:29;;;;;;;16.58;8.45;;;;;;;;;;6233810;28;20050;-80
2021/09/20 02:25:30;;;;;;;14.57;7.75;;;;;;;;;;6241024;28;20041;-81
2021/09/20 02:28:36;;;;;;;14.45;8.13;;;;;;;;;;6239891;28;20052;-81
2021/09/20 02:31:38;;;;;;;14.98;7.93;;;;;;;;;;6238753;28;20048;-81
2021/09/20 02:34:40;;;;;;;14.40;7.55;;;;;;;;;;6242490;28;20533;-82
2021/09/20 02:37:42;;;;;;;14.93;8.23;;;;;;;;;;6241980;28;20041;-82
2021/09/20 02:40:44;;;;;;;17.08;8.68;;;;;;;;;;6239198;28;20045;-79
2021/09/20 02:43:45;;;;;;;16.98;8.95;;;;;;;;;;6242585;28;20043;-81
2021/09/20 02:46:48;;;;;;;14.90;8.27;;;;;;;;;;6238643;28;20047;-81
2021/09/20 02:49:50;;;;;;;16.27;8.60;;;;;;;;;;6215718;28;20654;-82
2021/09/20 02:52:52;;;;;;;16.15;8.80;;;;;;;;;;6239445;28;20042;-81
2021/09/20 02:55:53;;;;;;;16.15;8.80;;;;;;;;;;6239359;28;20052;-81
2021/09/20 02:58:55;;;;;;;16.08;9.30;;;;;;;;;;6239750;28;20041;-79
2021/09/20 03:01:56;;;;;;;14.13;8.07;;;;;;;;;;6240733;28;20046;-80
2021/09/20 03:04:58;;;;;;;14.57;7.78;;;;;;;;;;6223202;28;20045;-81
2021/09/20 03:08:00;;;;;;;14.98;7.95;;;;;;;;;;6240144;28;20443;-82
2021/09/20 03:11:01;;;;;;;16.65;8.65;;;;;;;;;;6239498;28;20046;-80
2021/09/20 03:14:03;;;;;;;14.95;8.23;;;;;;;;;;6242997;28;20418;-79
2021/09/20 03:17:05;;;;;;;16.52;8.77;;;;;;;;;;6243214;28;20075;-80
2021/09/20 03:20:07;;;;;;;16.50;8.85;;;;;;;;;;6244060;28;20914;-80
2021/09/20 03:23:09;;;;;;;16.25;8.00;;;;;;;;;;6219308;28;20099;-81
2021/09/20 03:26:10;;;;;;;15.25;8.35;;;;;;;;;;6240824;28;20629;-81
2021/09/20 03:29:12;;;;;;;14.90;8.10;;;;;;;;;;6225393;28;20053;-80
2021/09/20 03:32:14;;;;;;;17.08;8.60;;;;;;;;;;6242260;28;20049;-81
2021/09/20 03:35:16;;;;;;;16.20;8.32;;;;;;;;;;6226008;28;20046;-81
2021/09/20 03:38:18;;;;;;;15.05;8.32;;;;;;;;;;6242296;28;20041;-81
2021/09/20 03:41:19;;;;;;;16.13;8.60;;;;;;;;;;6235455;28;20046;-81
2021/09/20 03:44:21;;;;;;;14.60;8.13;;;;;;;;;;6236800;28;20047;-82
2021/09/20 03:47:24;;;;;;;15.88;9.05;;;;;;;;;;6242909;28;20056;-81
2021/09/20 03:50:25;;;;;;;15.30;8.75;;;;;;;;;;6243502;28;20036;-79
2021/09/20 03:53:27;;;;;;;13.32;7.80;;;;;;;;;;6243727;28;20038;-81
2021/09/20 03:56:29;;;;;;;18.67;9.50;;;;;;;;;;6225251;28;20048;-81
2021/09/20 03:59:30;;;;;;;16.73;8.55;;;;;;;;;;6247984;28;20460;-79
2021/09/20 04:02:32;;;;;;;16.15;8.55;;;;;;;;;;6243166;28;20049;-81
2021/09/20 04:05:34;;;;;;;14.45;7.88;;;;;;;;;;6244096;28;20108;-79
2021/09/20 04:08:35;;;;;;;14.77;8.20;;;;;;;;;;6240839;28;20048;-79
2021/09/20 04:11:40;;;;;;;16.00;8.10;;;;;;;;;;6243669;28;20419;-79
2021/09/20 04:14:42;;;;;;;15.55;7.88;;;;;;;;;;6229605;28;20144;-79
2021/09/20 04:17:43;;;;;;;13.40;7.75;;;;;;;;;;6218508;28;20044;-80
2021/09/20 04:20:45;;;;;;;15.05;8.07;;;;;;;;;;6241577;28;20248;-80
2021/09/20 04:23:47;;;;;;;13.13;8.52;;;;;;;;;;6241337;28;20128;-79
2021/09/20 04:26:48;;;;;;;16.05;7.85;;;;;;;;;;6238881;28;20046;-79
2021/09/20 04:29:50;;;;;;;14.63;7.82;;;;;;;;;;6242038;28;20132;-82
2021/09/20 04:32:52;;;;;;;13.35;8.18;;;;;;;;;;6238078;28;20071;-81
2021/09/20 04:35:53;;;;;;;13.40;7.65;;;;;;;;;;6243668;28;20053;-80
2021/09/20 04:38:55;;;;;;;14.80;7.47;;;;;;;;;;6239303;28;20055;-80
2021/09/20 04:41:57;;;;;;;13.07;7.47;;;;;;;;;;6239881;28;20060;-81
2021/09/20 04:44:58;;;;;;;12.30;7.65;;;;;;;;;;6239471;28;20494;-80
2021/09/20 04:48:00;;;;;;;14.38;7.95;;;;;;;;;;6239315;28;20041;-81
2021/09/20 04:51:02;;;;;;;13.60;8.18;;;;;;;;;;6240205;28;20043;-80
2021/09/20 04:54:04;;;;;;;14.05;7.72;;;;;;;;;;6234656;28;20045;-80
2021/09/20 04:57:05;;;;;;;13.15;8.10;;;;;;;;;;6237992;28;20103;-79
2021/09/20 05:00:08;;;;;;;13.88;7.88;;;;;;;;;;6237026;28;20125;-79
2021/09/20 05:03:10;;;;;;;13.63;8.38;;;;;;;;;;6233247;28;20052;-80
2021/09/20 05:06:12;;;;;;;12.60;7.45;;;;;;;;;;6237831;28;20094;-82
2021/09/20 05:09:13;;;;;;;11.98;7.88;;;;;;;;;;6235066;28;20055;-82
2021/09/20 05:12:15;;;;;;;12.38;7.45;;;;;;;;;;6236425;28;20639;-80
2021/09/20 05:15:17;;;;;;;12.27;8.10;;;;;;;;;;6239284;28;20614;-82
2021/09/20 05:18:19;;;;;;;12.60;7.35;;;;;;;;;;6239519;28;20061;-82
2021/09/20 05:21:21;;;;;;;14.20;7.38;;;;;;;;;;6241117;28;20049;-82
2021/09/20 05:24:22;;;;;;;12.65;7.85;;;;;;;;;;6239766;28;20067;-80
2021/09/20 05:27:26;;;;;;;12.27;7.72;;;;;;;;;;6229935;28;20410;-79
2021/09/20 05:30:27;;;;;;;12.18;7.53;;;;;;;;;;6239302;28;20111;-82
2021/09/20 05:33:33;;;;;;;17.05;7.55;;;;;;;;;;6229762;28;20548;-80
2021/09/20 05:36:35;;;;;;;13.18;7.95;;;;;;;;;;6239000;28;20048;-82
2021/09/20 05:39:37;;;;;;;10.32;6.97;;;;;;;;;;6237153;28;20425;-79
2021/09/20 05:42:39;;;;;;;13.38;8.02;;;;;;;;;;6236503;28;20041;-81
2021/09/20 05:45:40;;;;;;;12.15;7.38;;;;;;;;;;6236150;28;20051;-81
2021/09/20 05:48:42;;;;;;;11.45;7.45;;;;;;;;;;6239096;28;20039;-80
2021/09/20 05:51:44;;;;;;;12.27;7.47;;;;;;;;;;6238126;28;20048;-81
2021/09/20 05:54:45;;;;;;;12.70;7.82;;;;;;;;;;6235118;28;20041;-80
2021/09/20 05:57:47;;;;;;;9.38;6.93;;;;;;;;;;6241942;28;20056;-80
2021/09/20 06:00:50;;;;;;;9.65;6.80;;;;;;;;;;6239474;28;20071;-80
2021/09/20 06:03:52;;;;;;;12.45;7.47;;;;;;;;;;6236326;28;20037;-79
2021/09/20 06:06:54;;;;;;;11.55;7.40;;;;;;;;;;6221810;28;20041;-79
2021/09/20 06:09:55;;;;;;;11.48;7.60;;;;;;;;;;6235713;28;20509;-79
2021/09/20 06:12:57;;;;;;;12.63;7.82;;;;;;;;;;6237778;28;20060;-80
2021/09/20 06:15:58;;;;;;;11.13;7.32;;;;;;;;;;6231078;28;20046;-80
2021/09/20 06:19:00;;;;;;;14.82;7.82;;;;;;;;;;6222468;28;20052;-82
2021/09/20 06:22:03;;;;;;;12.88;7.78;;;;;;;;;;6241786;28;20049;-82
2021/09/20 06:25:07;;;;;;;13.32;9.13;;;;;;;;;;6231501;28;20482;-80
2021/09/20 06:28:08;;;;;;;13.52;7.78;;;;;;;;;;6252536;28;20038;-81
2021/09/20 06:31:10;;;;;;;11.68;7.30;;;;;;;;;;6236243;28;20124;-80
2021/09/20 06:34:12;;;;;;;12.88;8.00;;;;;;;;;;6228295;28;20046;-81
2021/09/20 06:37:14;;;;;;;16.65;7.60;;;;;;;;;;6231494;28;20128;-81
2021/09/20 06:40:15;;;;;;;16.10;8.00;;;;;;;;;;6237553;28;20045;-82
2021/09/20 06:43:18;;;;;;;16.08;7.75;;;;;;;;;;6230873;28;20414;-81
2021/09/20 06:46:19;;;;;;;14.93;8.30;;;;;;;;;;6231899;28;20041;-80
2021/09/20 06:49:22;;;;;;;11.13;7.55;;;;;;;;;;6231995;28;20051;-81
2021/09/20 06:52:24;;;;;;;12.47;7.33;;;;;;;;;;6238337;28;20825;-80
2021/09/20 06:55:25;;;;;;;10.80;7.32;;;;;;;;;;6235803;28;20491;-80
2021/09/20 06:58:27;;;;;;;13.27;7.93;;;;;;;;;;6235070;28;20052;-81
2021/09/20 07:01:29;;;;;;;10.80;7.13;;;;;;;;;;6242099;28;20497;-82
2021/09/20 07:04:32;;;;;;;10.27;6.68;;;;;;;;;;6242371;28;20443;-78
2021/09/20 07:07:33;;;;;;;11.23;7.10;;;;;;;;;;6242671;28;20041;-78
2021/09/20 07:10:35;;;;;;;10.95;7.40;;;;;;;;;;6219457;28;20077;-79
2021/09/20 07:13:37;;;;;;;12.15;7.68;;;;;;;;;;6219802;28;20038;-80
2021/09/20 07:16:40;;;;;;;11.88;7.72;;;;;;;;;;6263662;28;20049;-81
2021/09/20 07:19:42;;;;;;;11.35;7.13;;;;;;;;;;6244962;28;20080;-81
2021/09/20 07:22:44;;;;;;;9.98;6.90;;;;;;;;;;6242550;28;20506;-82
2021/09/20 07:25:46;;;;;;;10.77;7.07;;;;;;;;;;6235034;28;20052;-82
2021/09/20 07:28:47;;;;;;;11.30;7.25;;;;;;;;;;6244115;28;20048;-78
2021/09/20 07:31:49;;;;;;;10.63;6.68;;;;;;;;;;6241493;28;20050;-80
2021/09/20 07:34:51;;;;;;;10.32;6.93;;;;;;;;;;6226197;28;20525;-82
2021/09/20 07:37:54;;;;;;;11.00;7.25;;;;;;;;;;6237305;28;20051;-81
2021/09/20 07:40:56;;;;;;;10.57;6.82;;;;;;;;;;6234303;28;20426;-79
2021/09/20 07:43:58;;;;;;;11.50;7.05;;;;;;;;;;6230642;28;20049;-81
2021/09/20 07:47:00;;;;;;;11.15;7.38;;;;;;;;;;6229543;28;20509;-81
2021/09/20 07:50:03;;;;;;;11.15;6.80;;;;;;;;;;6227288;28;20176;-81
2021/09/20 07:53:05;;;;;;;11.77;7.68;;;;;;;;;;6208874;28;20092;-80
2021/09/20 07:56:07;;;;;;;11.30;7.13;;;;;;;;;;6232275;28;20049;-80
2021/09/20 07:59:08;;;;;;;12.55;8.30;;;;;;;;;;6227188;28;20053;-82
2021/09/20 08:02:10;;;;;;;14.68;8.95;;;;;;;;;;6230033;28;20041;-81
2021/09/20 08:05:13;;;;;;;11.30;7.15;;;;;;;;;;6241344;28;20045;-80
2021/09/20 08:08:15;;;;;;;12.50;7.90;;;;;;;;;;6242934;28;20047;-83
2021/09/20 08:11:17;;;;;;;11.93;8.05;;;;;;;;;;6237640;28;20048;-81
2021/09/20 08:14:18;;;;;;;13.40;7.82;;;;;;;;;;6241360;28;20045;-80
2021/09/20 08:17:20;;;;;;;10.48;6.72;;;;;;;;;;6239790;28;20051;-81
2021/09/20 08:20:22;;;;;;;11.25;8.07;;;;;;;;;;6241762;28;20561;-80
2021/09/20 08:23:25;;;;;;;12.38;7.80;;;;;;;;;;6243415;28;20041;-81
2021/09/20 08:26:28;;;;;;;;;;;;;;;;;;6240651;28;20548;-79
2021/09/20 08:29:30;;;;;;;9.40;7.00;;;;;;;;;;6242494;28;19925;-80
2021/09/20 08:32:31;;;;;;;9.85;6.80;;;;;;;;;;6238510;28;20122;-81
2021/09/20 08:35:34;;;;;;;10.10;6.70;;;;;;;;;;6240575;28;20135;-79
2021/09/20 08:38:36;;;;;;;9.68;6.72;;;;;;;;;;6239190;28;20052;-80
2021/09/20 08:41:39;;;;;;;11.07;6.40;;;;;;;;;;6239399;28;20417;-79
2021/09/20 08:44:41;;;;;;;10.70;7.63;;;;;;;;;;6238060;28;20049;-80
2021/09/20 08:47:46;;;;;;;9.90;6.65;;;;;;;;;;6239324;28;20044;-80
2021/09/20 08:50:47;;;;;;;9.95;6.70;;;;;;;;;;6241197;28;20422;-82
2021/09/20 08:53:50;;;;;;;11.70;7.50;;;;;;;;;;6271576;28;20050;-80
2021/09/20 08:56:53;;;;;;;10.55;7.35;;;;;;;;;;6253163;28;20045;-80
2021/09/20 08:59:55;;;;;;;;;;;;;;;;;;6241445;28;20053;-81
2021/09/20 09:02:57;;;;;;;7.50;5.68;;;;;;;;;;6236577;28;20370;-81
2021/09/20 09:05:59;;;;;;;8.82;5.97;;;;;;;;;;6271127;28;20580;-79
2021/09/20 09:09:01;;;;;;;10.45;6.43;;;;;;;;;;6238906;28;20585;-80
2021/09/20 09:12:26;;;;;;;9.75;6.28;;;;;;;;;;6237750;28;20063;-82
2021/09/20 09:15:27;;;;;;;9.30;6.13;;;;;;;;;;6237172;28;20107;-81
2021/09/20 09:18:29;;;;;;;9.20;6.35;;;;;;;;;;6240054;28;20041;-82
2021/09/20 09:21:34;;;;;;;8.35;5.95;;;;;;;;;;6238141;28;20103;-79
2021/09/20 09:24:35;;;;;;;8.95;6.47;;;;;;;;;;6239137;28;20053;-81
2021/09/20 09:27:38;;;;;;;10.15;6.10;;;;;;;;;;6241141;28;20045;-80
2021/09/20 09:30:45;;;;;;;8.80;6.10;;;;;;;;;;6233475;28;20406;-80
2021/09/20 09:33:47;;;;;;;9.23;5.63;;;;;;;;;;6230992;28;20097;-81
2021/09/20 09:36:49;;;;;;;7.75;6.03;;;;;;;;;;6238361;28;20060;-81
2021/09/20 09:40:25;;;;;;;7.65;6.03;;;;;;;;;;6254856;28;20093;-80
2021/09/20 09:43:27;;;;;;;9.02;6.43;;;;;;;;;;6235692;28;20128;-80
2021/09/20 09:46:29;;;;;;;9.15;6.40;;;;;;;;;;6238269;28;20064;-81
2021/09/20 09:49:31;;;;;;;8.45;6.90;;;;;;;;;;6239832;28;20056;-80
2021/09/20 09:52:36;;;;;;;10.68;6.53;;;;;;;;;;6222468;28;20045;-78
2021/09/20 09:55:38;;;;;;;15.40;10.38;;;;;;;;;;6217720;28;20050;-79
2021/09/20 09:59:03;;;;;;;9.70;6.93;;;;;;;;;;6230079;28;20046;-81
2021/09/20 10:02:22;;;;;;;9.88;6.75;;;;;;;;;;6228599;28;20057;-80
2021/09/20 10:05:24;;;;;;;8.05;6.25;;;;;;;;;;6239610;28;20047;-81
2021/09/20 10:08:26;;;;;;;10.10;6.65;;;;;;;;;;6238339;28;20037;-81
2021/09/20 10:11:28;;;;;;;9.30;6.05;;;;;;;;;;6224573;28;20065;-82
2021/09/20 10:14:30;;;;;;;8.47;6.30;;;;;;;;;;6214251;28;20042;-81
2021/09/20 10:17:32;;;;;;;10.35;6.53;;;;;;;;;;6236051;28;20103;-81
2021/09/20 10:20:34;;;;;;;9.15;6.40;;;;;;;;;;6237030;28;20215;-82
2021/09/20 10:23:38;;;;;;;8.55;6.03;;;;;;;;;;6236511;28;20487;-81
2021/09/20 10:26:40;;;;;;;9.45;6.45;;;;;;;;;;6236762;28;20507;-81
2021/09/20 10:29:46;;;;;;;9.95;5.72;;;;;;;;;;6236734;28;20494;-79
2021/09/20 10:32:58;;;;;;;8.93;6.00;;;;;;;;;;6236980;28;20049;-80
2021/09/20 10:36:00;;;;;;;8.27;6.00;;;;;;;;;;6241584;28;20411;-80
2021/09/20 10:39:02;;;;;;;9.18;5.78;;;;;;;;;;6238429;28;20844;-81
2021/09/20 10:42:03;;;;;;;9.25;6.22;;;;;;;;;;6238503;28;20052;-80
2021/09/20 10:45:28;;;;;;;7.53;6.05;;;;;;;;;;6239486;28;20047;-80
2021/09/20 10:48:46;;;;;;;8.70;6.25;;;;;;;;;;6237759;28;20064;-81
2021/09/20 10:52:03;;;;;;;8.05;6.13;;;;;;;;;;6237300;28;20045;-82
2021/09/20 10:55:08;;;;;;;9.93;5.85;;;;;;;;;;6236494;28;20492;-83
2021/09/20 10:58:16;;;;;;;8.00;5.50;;;;;;;;;;6238810;28;20043;-83
2021/09/20 11:01:19;;;;;;;7.03;5.75;;;;;;;;;;6236221;28;20397;-82
2021/09/20 11:04:28;;;;;;;10.85;6.07;;;;;;;;;;6236027;28;20060;-81
2021/09/20 11:07:43;;;;;;;7.75;5.75;;;;;;;;;;6267306;28;20053;-82
2021/09/20 11:10:44;;;;;;;7.82;6.15;;;;;;;;;;6212566;28;20038;-82
2021/09/20 11:14:13;;;;;;;8.95;5.63;;;;;;;;;;6241157;28;20457;-81
2021/09/20 11:17:19;;;;;;;8.35;5.88;;;;;;;;;;6229994;28;20437;-82
2021/09/20 11:20:31;;;;;;;7.43;5.60;;;;;;;;;;6233036;28;20045;-82
2021/09/20 11:23:35;;;;;;;7.90;5.72;;;;;;;;;;6230054;28;20042;-82
2021/09/20 11:26:37;;;;;;;7.80;5.90;;;;;;;;;;6218890;28;20057;-82
2021/09/20 11:29:39;;;;;;;9.10;5.70;;;;;;;;;;6239072;28;20124;-82
2021/09/20 11:32:55;;;;;;;7.68;5.95;;;;;;;;;;6228807;28;20044;-82
2021/09/20 11:35:56;;;;;;;9.05;6.20;;;;;;;;;;6217311;28;20716;-82
2021/09/20 11:39:19;;;;;;;9.75;5.95;;;;;;;;;;6252228;28;20419;-83
2021/09/20 11:42:43;;;;;;;8.35;5.85;;;;;;;;;;6238902;28;20050;-81
2021/09/20 11:45:44;;;;;;;8.10;6.15;;;;;;;;;;6240139;28;20462;-82
2021/09/20 11:48:46;;;;;;;8.98;5.95;;;;;;;;;;6238743;28;20052;-81
2021/09/20 11:51:52;;;;;;;7.97;5.55;;;;;;;;;;6240624;28;20042;-81
2021/09/20 11:54:54;;;;;;;8.18;5.47;;;;;;;;;;6238052;28;20145;-84
2021/09/20 11:57:58;;;;;;;10.15;6.15;;;;;;;;;;6241035;28;20079;-82
2021/09/20 12:01:00;;;;;;;8.93;6.07;;;;;;;;;;6222019;28;20402;-81
2021/09/20 12:04:03;;;;;;;8.38;6.05;;;;;;;;;;6242767;28;20049;-83
2021/09/20 12:07:04;;;;;;;8.25;6.00;;;;;;;;;;6240674;28;20141;-81
2021/09/20 12:10:07;;;;;;;7.05;5.40;;;;;;;;;;6241030;28;20043;-80
2021/09/20 12:13:14;;;;;;;8.30;5.63;;;;;;;;;;6220206;28;20585;-81
2021/09/20 12:16:17;;;;;;;7.95;5.15;;;;;;;;;;6220288;28;20558;-81
2021/09/20 12:19:22;;;;;;;;;;;;;;;;;;6239469;28;20510;-82
2021/09/20 12:22:45;;;;;;;7.57;5.07;;;;;;;;;;6270175;28;20041;-82
2021/09/20 12:25:47;;;;;;;;;;;;;;;;;;6238185;28;20187;-82
2021/09/20 12:28:56;;;;;;;8.23;5.20;;;;;;;;;;6239519;28;20270;-82
2021/09/20 12:31:58;;;;;;;7.20;5.10;;;;;;;;;;6234291;28;20111;-78
2021/09/20 12:35:00;;;;;;;7.70;5.03;;;;;;;;;;6236437;28;20119;-81
2021/09/20 12:38:19;;;;;;;7.38;5.63;;;;;;;;;;6239142;28;20152;-80
2021/09/20 12:41:21;;;;;;;5.65;4.45;;;;;;;;;;6236048;28;20711;-81
2021/09/20 12:44:37;;;;;;;9.52;5.20;;;;;;;;;;6237583;28;20085;-79
2021/09/20 12:47:38;;;;;;;7.95;5.40;;;;;;;;;;6237772;28;20040;-81
2021/09/20 12:50:46;;;;;;;7.65;5.60;;;;;;;;;;6216841;28;20507;-80
2021/09/20 12:53:57;;;;;;;7.80;5.75;;;;;;;;;;6214673;28;20041;-81
2021/09/20 12:57:16;;;;;;;6.75;5.28;;;;;;;;;;6234862;28;20049;-81
2021/09/20 13:00:20;;;;;;;7.03;5.43;;;;;;;;;;6236526;28;20049;-82
2021/09/20 13:03:34;;;;;;;6.85;5.18;;;;;;;;;;6223365;28;20041;-79
2021/09/20 13:06:36;;;;;;;6.95;5.30;;;;;;;;;;6234864;28;20048;-80
2021/09/20 13:09:52;;;;;;;7.47;5.75;;;;;;;;;;6241079;28;20048;-81
2021/09/20 13:12:54;;;;;;;7.80;5.72;;;;;;;;;;6237994;28;20518;-79
2021/09/20 13:15:57;;;;;;;;;;;;;;;;;;6231551;28;20491;-80
2021/09/20 13:19:05;;;;;;;9.00;6.10;;;;;;;;;;6236982;28;20004;-81
2021/09/20 13:22:08;;;;;;;8.07;5.57;;;;;;;;;;6232375;28;20128;-80
2021/09/20 13:25:24;;;;;;;7.00;5.40;;;;;;;;;;6234127;28;20095;-80
2021/09/20 13:28:33;;;;;;;7.25;5.40;;;;;;;;;;6240214;28;21557;-81
2021/09/20 13:31:35;;;;;;;7.30;5.35;;;;;;;;;;6219144;28;20072;-80
2021/09/20 13:34:37;;;;;;;6.97;4.82;;;;;;;;;;6239035;28;20176;-82
2021/09/20 13:37:38;;;;;;;8.73;5.10;;;;;;;;;;6228863;28;20046;-80
2021/09/20 13:40:41;;;;;;;5.68;5.00;;;;;;;;;;6209735;28;20120;-82
2021/09/20 13:43:45;;;;;;;6.85;4.82;;;;;;;;;;6234885;28;20038;-81
2021/09/20 13:46:46;;;;;;;13.07;5.70;;;;;;;;;;6225849;28;20049;-81
2021/09/20 13:49:48;;;;;;;7.05;5.00;;;;;;;;;;6237314;28;20037;-82
2021/09/20 13:52:50;;;;;;;6.47;4.93;;;;;;;;;;6227861;28;20052;-84
2021/09/20 13:55:52;;;;;;;7.00;5.32;;;;;;;;;;6229863;28;20045;-79
2021/09/20 13:58:54;;;;;;;6.38;5.03;;;;;;;;;;6227947;28;20052;-78
2021/09/20 14:01:55;;;;;;;7.77;4.83;;;;;;;;;;6225142;28;20072;-76
2021/09/20 14:04:59;;;;;;;7.43;5.18;;;;;;;;;;6215522;28;20456;-78
2021/09/20 14:08:02;;;;;;;8.40;5.75;;;;;;;;;;6222497;28;20052;-78
2021/09/20 14:11:03;;;;;;;;;;;;;;;;;;6244329;28;20049;-79
2021/09/20 14:14:05;;;;;;;7.55;5.47;;;;;;;;;;6235578;28;20002;-81
2021/09/20 14:17:08;;;;;;;7.93;5.50;;;;;;;;;;6206108;28;20171;-81
2021/09/20 14:20:11;;;;;;;7.43;5.63;;;;;;;;;;6206265;28;20048;-79
2021/09/20 14:23:13;;;;;;;7.50;5.50;;;;;;;;;;6211915;28;20038;-81
2021/09/20 14:26:15;;;;;;;7.30;5.88;;;;;;;;;;6251904;28;20056;-81
2021/09/20 14:29:16;;;;;;;7.65;5.65;;;;;;;;;;6225788;28;20175;-81
2021/09/20 14:32:18;;;;;;;6.78;4.97;;;;;;;;;;6229748;28;20103;-81
2021/09/20 14:35:20;;;;;;;8.32;5.65;;;;;;;;;;6224074;28;20176;-80
2021/09/20 14:38:21;;;;;;;9.48;5.90;;;;;;;;;;6221900;28;20406;-80
2021/09/20 14:41:23;;;;;;;8.35;5.68;;;;;;;;;;6233288;28;20646;-79
2021/09/20 14:44:24;;;;;;;8.13;5.60;;;;;;;;;;6235384;28;20052;-81
2021/09/20 14:47:26;;;;;;;6.93;5.40;;;;;;;;;;6208594;28;20050;-80
2021/09/20 14:50:28;;;;;;;7.32;5.68;;;;;;;;;;6232732;28;20543;-80
2021/09/20 14:53:31;;;;;;;8.70;5.57;;;;;;;;;;6223060;28;20597;-79
2021/09/20 14:56:33;;;;;;;7.30;5.60;;;;;;;;;;6223322;28;20052;-79
2021/09/20 14:59:34;;;;;;;8.05;6.05;;;;;;;;;;6234432;28;20044;-81
2021/09/20 15:02:36;;;;;;;7.43;5.93;;;;;;;;;;6226668;28;20166;-79
2021/09/20 15:05:38;;;;;;;8.57;6.05;;;;;;;;;;6231375;28;20045;-82
2021/09/20 15:08:42;;;;;;;8.07;5.90;;;;;;;;;;6261646;28;20067;-81
2021/09/20 15:11:43;;;;;;;10.93;5.80;;;;;;;;;;6227327;28;20048;-80
2021/09/20 15:14:45;;;;;;;9.30;6.35;;;;;;;;;;6220643;28;20263;-77
2021/09/20 15:17:48;;;;;;;10.38;6.38;;;;;;;;;;6227581;28;20065;-80
2021/09/20 15:20:49;;;;;;;10.98;7.05;;;;;;;;;;6226451;28;20038;-80
2021/09/20 15:23:51;;;;;;;8.82;6.40;;;;;;;;;;6216442;28;20054;-80
2021/09/20 15:26:54;;;;;;;8.40;6.10;;;;;;;;;;6218964;28;20215;-79
2021/09/20 15:29:56;;;;;;;14.07;7.38;;;;;;;;;;6223121;28;20423;-78
2021/09/20 15:32:57;;;;;;;10.63;7.22;;;;;;;;;;6233686;28;20049;-78
2021/09/20 15:36:00;;;;;;;9.80;6.82;;;;;;;;;;6234402;28;20126;-78
2021/09/20 15:39:02;;;;;;;;;;;;;;;;;;6236431;28;20113;-81
2021/09/20 15:42:05;;;;;;;10.82;6.95;;;;;;;;;;6230384;28;20098;-78
2021/09/20 15:45:07;;;;;;;12.02;7.82;;;;;;;;;;6236443;28;20110;-80
2021/09/20 15:48:10;;;;;;;9.20;6.40;;;;;;;;;;6230281;28;20659;-81
2021/09/20 15:51:11;;;;;;;9.63;6.57;;;;;;;;;;6234776;28;20818;-80
2021/09/20 15:54:17;;;;;;;10.02;6.53;;;;;;;;;;6232660;28;20076;-79
2021/09/20 15:57:20;;;;;;;11.07;7.40;;;;;;;;;;6235930;28;20042;-81
2021/09/20 16:00:24;;;;;;;11.25;6.38;;;;;;;;;;6234313;28;20069;-79
2021/09/20 16:03:26;;;;;;;10.65;6.88;;;;;;;;;;6235616;28;20216;-79
2021/09/20 16:06:28;;;;;;;8.15;6.38;;;;;;;;;;6238188;28;20045;-81
2021/09/20 16:09:31;;;;;;;10.55;6.53;;;;;;;;;;6236796;28;20037;-80
2021/09/20 16:12:33;;;;;;;8.88;6.25;;;;;;;;;;6236463;28;20037;-80
2021/09/20 16:15:35;;;;;;;9.07;6.18;;;;;;;;;;6235722;28;20921;-81
2021/09/20 16:18:37;;;;;;;11.23;7.00;;;;;;;;;;6238292;28;20053;-81
2021/09/20 16:21:38;;;;;;;9.98;6.60;;;;;;;;;;6238299;28;20733;-80
2021/09/20 16:24:40;;;;;;;9.07;6.35;;;;;;;;;;6237382;28;20041;-81
2021/09/20 16:27:42;;;;;;;8.07;6.55;;;;;;;;;;6239229;28;20462;-81
2021/09/20 16:30:44;;;;;;;9.93;6.45;;;;;;;;;;6240901;28;20045;-81
2021/09/20 16:33:46;;;;;;;8.75;5.88;;;;;;;;;;6245631;28;20049;-80
2021/09/20 16:36:47;;;;;;;8.48;6.80;;;;;;;;;;6244894;28;20091;-80
2021/09/20 16:39:49;;;;;;;9.38;6.22;;;;;;;;;;6239586;28;20045;-81
2021/09/20 16:42:52;;;;;;;9.93;7.28;;;;;;;;;;6243817;28;20676;-81
2021/09/20 16:45:54;;;;;;;9.55;7.15;;;;;;;;;;6242599;28;20049;-81
2021/09/20 16:48:56;;;;;;;10.23;6.90;;;;;;;;;;6243859;28;20044;-81
2021/09/20 16:51:58;;;;;;;7.65;6.15;;;;;;;;;;6218284;28;20080;-79
2021/09/20 16:55:01;;;;;;;8.45;6.53;;;;;;;;;;6253394;28;20038;-80
2021/09/20 16:58:03;;;;;;;9.07;6.15;;;;;;;;;;6234929;28;20052;-82
2021/09/20 17:01:05;;;;;;;13.27;8.20;;;;;;;;;;6236167;28;20037;-81
2021/09/20 17:04:09;;;;;;;9.65;6.55;;;;;;;;;;6241970;28;20124;-81
2021/09/20 17:07:12;;;;;;;11.82;6.88;;;;;;;;;;6238192;28;20041;-81
2021/09/20 17:10:18;;;;;;;8.63;6.43;;;;;;;;;;6249632;28;20175;-79
2021/09/20 17:13:20;;;;;;;9.23;6.55;;;;;;;;;;6238098;28;20041;-80
2021/09/20 17:16:23;;;;;;;8.23;5.70;;;;;;;;;;6227508;28;20050;-78
2021/09/20 17:19:25;;;;;;;8.75;5.90;;;;;;;;;;6266627;28;20111;-81
2021/09/20 17:22:26;;;;;;;8.38;5.95;;;;;;;;;;6236505;28;20534;-80
2021/09/20 17:25:29;;;;;;;8.55;6.45;;;;;;;;;;6237228;28;20095;-81
2021/09/20 17:28:31;;;;;;;11.30;6.27;;;;;;;;;;6238767;28;20052;-80
2021/09/20 17:31:33;;;;;;;10.40;6.38;;;;;;;;;;6232798;28;20048;-81
2021/09/20 17:34:38;;;;;;;12.00;6.75;;;;;;;;;;6237957;28;20107;-81
2021/09/20 17:37:40;;;;;;;10.88;6.57;;;;;;;;;;6239144;28;20037;-80
2021/09/20 17:40:41;;;;;;;9.30;6.53;;;;;;;;;;6236692;28;20049;-81
2021/09/20 17:43:43;;;;;;;9.50;6.50;;;;;;;;;;6238792;28;20044;-82
2021/09/20 17:46:45;;;;;;;10.40;6.78;;;;;;;;;;6237956;28;20429;-81
2021/09/20 17:49:46;;;;;;;9.65;6.65;;;;;;;;;;6241525;28;20057;-80
2021/09/20 17:52:48;;;;;;;9.35;7.10;;;;;;;;;;6238519;28;20076;-81
2021/09/20 17:55:50;;;;;;;9.10;6.03;;;;;;;;;;6241226;28;20056;-81
2021/09/20 17:58:51;;;;;;;7.65;6.55;;;;;;;;;;6246896;28;20065;-80
2021/09/20 18:01:58;;;;;;;8.73;6.40;;;;;;;;;;6224664;28;20055;-80
2021/09/20 18:05:00;;;;;;;9.23;6.07;;;;;;;;;;6224243;28;20049;-82
2021/09/20 18:08:02;;;;;;;9.23;5.90;;;;;;;;;;6238037;28;20041;-82
2021/09/20 18:11:05;;;;;;;8.90;6.47;;;;;;;;;;6238560;28;20048;-82
2021/09/20 18:14:07;;;;;;;9.13;7.10;;;;;;;;;;6238772;28;20128;-81